createdAt,value
2023-02-04T00:00:21.678Z,59.79
2023-02-04T00:03:23.164Z,59.92
2023-02-04T00:06:24.685Z,59.78
2023-02-04T00:09:26.194Z,59.75
2023-02-04T00:12:27.677Z,59.75
2023-02-04T00:15:29.885Z,59.82
2023-02-04T00:18:31.323Z,59.72
2023-02-04T00:21:33.073Z,59.75
2023-02-04T00:24:38.186Z,59.70
2023-02-04T00:27:39.754Z,59.72
2023-02-04T00:30:41.321Z,59.59
2023-02-04T00:33:43.905Z,59.25
2023-02-04T00:36:45.536Z,59.41
2023-02-04T00:39:47.263Z,59.56
2023-02-04T00:42:48.794Z,59.61
2023-02-04T00:45:50.344Z,59.70
2023-02-04T00:48:51.912Z,59.59
2023-02-04T00:51:53.371Z,59.43
2023-02-04T00:54:54.850Z,59.41
2023-02-04T00:57:56.957Z,59.29
2023-02-04T01:00:58.474Z,59.54
2023-02-04T01:04:00.144Z,59.39
2023-02-04T01:07:01.726Z,59.28
2023-02-04T01:10:03.956Z,59.31
2023-02-04T01:13:05.501Z,59.42
2023-02-04T01:16:06.991Z,59.47
2023-02-04T01:19:08.946Z,59.48
2023-02-04T01:22:10.450Z,59.17
2023-02-04T01:25:12.049Z,59.29
2023-02-04T01:28:17.024Z,59.42
2023-02-04T01:31:18.666Z,59.56
2023-02-04T01:34:20.365Z,59.70
2023-02-04T01:37:21.962Z,59.49
2023-02-04T01:40:23.738Z,59.70
2023-02-04T01:43:25.583Z,59.58
2023-02-04T01:46:27.326Z,59.58
2023-02-04T01:49:29.424Z,59.53
2023-02-04T01:52:35.228Z,59.62
2023-02-04T01:55:36.798Z,59.61
2023-02-04T01:58:38.289Z,59.73
2023-02-04T02:01:41.814Z,59.79
2023-02-04T02:04:43.377Z,59.67
2023-02-04T02:07:45.020Z,59.70
2023-02-04T02:10:49.141Z,59.87
2023-02-04T02:13:50.764Z,59.73
2023-02-04T02:16:52.357Z,59.79
2023-02-04T02:19:53.888Z,59.75
2023-02-04T02:23:26.961Z,59.89
2023-02-04T02:26:28.758Z,59.78
2023-02-04T02:29:30.403Z,59.82
2023-02-04T02:32:32.127Z,59.89
2023-02-04T02:35:34.343Z,59.79
2023-02-04T02:38:36.089Z,59.87
2023-02-04T02:41:38.010Z,59.86
2023-02-04T02:44:39.596Z,59.96
2023-02-04T02:47:41.245Z,59.91
2023-02-04T02:50:43.713Z,60.05
2023-02-04T02:53:47.893Z,60.19
2023-02-04T02:56:50.157Z,60.19
2023-02-04T02:59:52.168Z,60.06
2023-02-04T03:03:06.538Z,60.30
2023-02-04T03:06:13.309Z,60.23
2023-02-04T03:09:16.016Z,60.33
2023-02-04T03:12:21.990Z,60.35
2023-02-04T03:15:23.606Z,60.44
2023-02-04T03:18:25.353Z,60.60
2023-02-04T03:21:27.353Z,60.45
2023-02-04T03:24:28.944Z,60.41
2023-02-04T03:27:32.638Z,60.69
2023-02-04T03:30:34.262Z,60.59
2023-02-04T03:33:35.931Z,60.50
2023-02-04T03:36:37.661Z,60.34
2023-02-04T03:39:40.299Z,60.66
2023-02-04T03:42:41.898Z,60.74
2023-02-04T03:45:45.755Z,60.74
2023-02-04T03:48:47.396Z,60.92
2023-02-04T03:51:48.985Z,60.68
2023-02-04T03:54:50.492Z,60.71
2023-02-04T03:57:53.130Z,60.77
2023-02-04T04:00:54.607Z,60.80
2023-02-04T04:03:56.100Z,60.92
2023-02-04T04:06:57.669Z,60.92
2023-02-04T04:09:59.176Z,61.08
2023-02-04T04:13:00.658Z,60.90
2023-02-04T04:16:03.856Z,60.91
2023-02-04T04:19:05.413Z,60.80
2023-02-04T04:22:06.981Z,60.87
2023-02-04T04:25:08.711Z,60.93
2023-02-04T04:28:11.630Z,60.88
2023-02-04T04:31:13.461Z,60.87
2023-02-04T04:34:15.052Z,60.94
2023-02-04T04:37:16.679Z,60.98
2023-02-04T04:40:18.376Z,61.01
2023-02-04T04:43:20.110Z,60.85
2023-02-04T04:46:21.704Z,61.08
2023-02-04T04:49:24.143Z,61.04
2023-02-04T04:52:25.620Z,61.22
2023-02-04T04:55:27.140Z,61.23
2023-02-04T04:58:28.633Z,61.30
2023-02-04T05:01:30.146Z,61.36
2023-02-04T05:04:31.729Z,61.66
2023-02-04T05:07:33.281Z,61.36
2023-02-04T05:10:34.751Z,61.49
2023-02-04T05:13:36.210Z,61.47
2023-02-04T05:16:37.861Z,61.39
2023-02-04T05:19:39.382Z,61.35
2023-02-04T05:22:40.877Z,61.45
2023-02-04T05:25:42.553Z,61.39
2023-02-04T05:28:44.043Z,61.46
2023-02-04T05:31:45.625Z,61.36
2023-02-04T05:34:47.239Z,61.54
2023-02-04T05:37:48.724Z,61.42
2023-02-04T05:40:50.221Z,61.38
2023-02-04T05:43:51.753Z,61.36
2023-02-04T05:46:53.257Z,61.41
2023-02-04T05:49:54.822Z,61.41
2023-02-04T05:52:56.516Z,61.38
2023-02-04T05:55:58.018Z,61.24
2023-02-04T05:58:59.525Z,61.47
2023-02-04T06:02:01.044Z,61.56
2023-02-04T06:05:02.551Z,61.41
2023-02-04T06:08:04.290Z,61.57
2023-02-04T06:11:05.849Z,61.71
2023-02-04T06:14:07.845Z,61.62
2023-02-04T06:17:09.375Z,61.87
2023-02-04T06:20:13.333Z,61.82
2023-02-04T06:23:14.917Z,61.87
2023-02-04T06:26:16.432Z,61.86
2023-02-04T06:29:17.985Z,61.80
2023-02-04T06:32:20.689Z,62.13
2023-02-04T06:35:22.175Z,61.97
2023-02-04T06:38:23.680Z,61.96
2023-02-04T06:41:25.243Z,62.01
2023-02-04T06:44:26.757Z,61.97
2023-02-04T06:47:28.308Z,61.98
2023-02-04T06:50:30.145Z,61.76
2023-02-04T06:53:31.868Z,61.87
2023-02-04T06:56:33.358Z,61.92
2023-02-04T06:59:36.472Z,61.83
2023-02-04T07:02:39.595Z,61.86
2023-02-04T07:05:41.196Z,61.85
2023-02-04T07:08:42.680Z,61.87
2023-02-04T07:11:44.139Z,61.85
2023-02-04T07:14:45.642Z,61.89
2023-02-04T07:17:47.194Z,61.83
2023-02-04T07:20:48.679Z,61.90
2023-02-04T07:23:50.141Z,61.71
2023-02-04T07:26:51.627Z,61.90
2023-02-04T07:29:53.074Z,61.82
2023-02-04T07:32:54.842Z,62.09
2023-02-04T07:35:56.273Z,61.98
2023-02-04T07:38:57.714Z,62.21
2023-02-04T07:41:59.224Z,62.07
2023-02-04T07:45:08.517Z,61.87
2023-02-04T07:48:10.869Z,62.10
2023-02-04T07:51:12.362Z,62.08
2023-02-04T07:54:13.930Z,62.13
2023-02-04T07:57:15.455Z,62.21
2023-02-04T08:00:17.258Z,62.25
2023-02-04T08:03:18.803Z,62.25
2023-02-04T08:06:20.297Z,62.84
2023-02-04T08:09:21.837Z,62.52
2023-02-04T08:12:23.409Z,62.61
2023-02-04T08:15:24.895Z,62.52
2023-02-04T08:18:26.372Z,62.43
2023-02-04T08:21:27.923Z,62.34
2023-02-04T08:24:29.419Z,62.57
2023-02-04T08:27:31.226Z,62.35
2023-02-04T08:30:33.007Z,62.33
2023-02-04T08:33:34.763Z,62.29
2023-02-04T08:36:36.259Z,62.54
2023-02-04T08:39:38.411Z,62.14
2023-02-04T08:42:39.904Z,62.27
2023-02-04T08:45:41.487Z,62.14
2023-02-04T08:48:43.054Z,62.23
2023-02-04T08:51:44.610Z,61.94
2023-02-04T08:54:46.282Z,61.82
2023-02-04T08:57:47.757Z,61.70
2023-02-04T09:00:49.286Z,61.52
2023-02-04T09:03:50.816Z,61.49
2023-02-04T09:06:52.354Z,61.45
2023-02-04T09:09:53.832Z,61.49
2023-02-04T09:12:56.112Z,61.45
2023-02-04T09:15:57.738Z,61.62
2023-02-04T09:18:59.381Z,61.75
2023-02-04T09:22:00.866Z,61.56
2023-02-04T09:25:02.384Z,61.48
2023-02-04T09:28:03.988Z,61.58
2023-02-04T09:31:06.458Z,61.35
2023-02-04T09:34:08.017Z,61.38
2023-02-04T09:37:09.573Z,61.31
2023-02-04T09:40:16.998Z,61.51
2023-02-04T09:43:27.641Z,61.30
2023-02-04T09:46:30.258Z,61.36
2023-02-04T09:49:32.461Z,61.24
2023-02-04T09:52:34.135Z,61.30
2023-02-04T09:55:39.250Z,61.39
2023-02-04T09:58:41.917Z,61.37
2023-02-04T10:01:44.224Z,61.46
2023-02-04T10:04:45.698Z,61.24
2023-02-04T10:07:47.749Z,61.45
2023-02-04T10:10:49.591Z,61.18
2023-02-04T10:13:54.589Z,61.13
2023-02-04T10:17:01.489Z,61.06
2023-02-04T10:20:03.907Z,60.93
2023-02-04T10:23:12.593Z,61.08
2023-02-04T10:26:15.365Z,61.10
2023-02-04T10:29:19.767Z,61.12
2023-02-04T10:32:33.391Z,61.10
2023-02-04T10:35:45.771Z,61.26
2023-02-04T10:38:59.945Z,61.19
2023-02-04T10:42:01.741Z,61.27
2023-02-04T10:45:04.011Z,61.27
2023-02-04T10:48:05.902Z,61.10
2023-02-04T10:51:12.710Z,61.12
2023-02-04T10:54:35.019Z,61.15
2023-02-04T10:57:39.758Z,61.09
2023-02-04T11:00:41.552Z,61.13
2023-02-04T11:03:45.336Z,61.20
2023-02-04T11:06:47.889Z,61.34
2023-02-04T11:09:49.804Z,61.37
2023-02-04T11:12:53.997Z,61.35
2023-02-04T11:16:18.688Z,61.31
2023-02-04T11:19:36.469Z,61.49
2023-02-04T11:22:44.279Z,61.46
2023-02-04T11:25:45.883Z,61.58
2023-02-04T11:28:59.381Z,61.65
2023-02-04T11:32:04.661Z,61.61
2023-02-04T11:35:10.329Z,61.67
2023-02-04T11:38:29.287Z,61.78
2023-02-04T11:41:33.260Z,61.81
2023-02-04T11:44:34.785Z,61.85
2023-02-04T11:47:36.908Z,61.83
2023-02-04T11:50:38.819Z,61.88
2023-02-04T11:53:40.482Z,61.89
2023-02-04T11:56:42.210Z,61.85
2023-02-04T11:59:43.706Z,61.71
2023-02-04T12:02:51.840Z,61.52
2023-02-04T12:05:55.068Z,61.69
2023-02-04T12:09:06.042Z,61.71
2023-02-04T12:12:07.645Z,61.76
2023-02-04T12:15:16.028Z,61.72
2023-02-04T12:18:17.782Z,61.73
2023-02-04T12:21:19.432Z,61.69
2023-02-04T12:24:20.954Z,61.80
2023-02-04T12:27:22.963Z,61.77
2023-02-04T12:30:26.059Z,61.70
2023-02-04T12:33:27.743Z,61.71
2023-02-04T12:36:29.764Z,61.60
2023-02-04T12:39:31.960Z,61.48
2023-02-04T12:42:33.497Z,61.48
2023-02-04T12:45:35.114Z,61.61
2023-02-04T12:48:40.870Z,61.60
2023-02-04T12:51:42.341Z,61.63
2023-02-04T12:54:43.802Z,61.54
2023-02-04T12:57:45.299Z,61.53
2023-02-04T13:00:46.826Z,61.68
2023-02-04T13:03:48.310Z,61.67
2023-02-04T13:06:49.819Z,61.65
2023-02-04T13:09:52.226Z,61.61
2023-02-04T13:12:53.704Z,61.58
2023-02-04T13:15:55.262Z,61.65
2023-02-04T13:18:56.943Z,61.40
2023-02-04T13:21:59.189Z,61.48
2023-02-04T13:25:01.747Z,61.38
2023-02-04T13:28:05.600Z,61.38
2023-02-04T13:31:07.683Z,61.33
2023-02-04T13:34:09.299Z,61.17
2023-02-04T13:37:10.987Z,61.02
2023-02-04T13:40:13.028Z,61.12
2023-02-04T13:43:14.628Z,61.03
2023-02-04T13:46:16.113Z,60.71
2023-02-04T13:49:17.611Z,60.79
2023-02-04T13:52:19.195Z,60.87
2023-02-04T13:55:21.093Z,60.81
2023-02-04T13:58:22.562Z,60.90
2023-02-04T14:01:24.214Z,60.74
2023-02-04T14:04:27.008Z,60.84
2023-02-04T14:07:28.528Z,60.81
2023-02-04T14:10:30.351Z,60.75
2023-02-04T14:13:32.000Z,60.68
2023-02-04T14:16:33.709Z,60.65
2023-02-04T14:19:35.948Z,60.60
2023-02-04T14:22:37.396Z,60.57
2023-02-04T14:25:38.900Z,60.47
2023-02-04T14:28:40.373Z,60.41
2023-02-04T14:31:42.217Z,60.40
2023-02-04T14:34:43.699Z,60.40
2023-02-04T14:37:45.397Z,60.50
2023-02-04T14:40:47.033Z,60.53
2023-02-04T14:43:48.807Z,60.47
2023-02-04T14:46:50.451Z,60.44
2023-02-04T14:49:52.057Z,60.39
2023-02-04T14:52:54.406Z,60.37
2023-02-04T14:55:55.992Z,60.29
2023-02-04T14:58:57.516Z,60.32
2023-02-04T15:01:59.158Z,60.35
2023-02-04T15:05:00.725Z,60.23
2023-02-04T15:08:02.371Z,60.29
2023-02-04T15:11:03.988Z,60.30
2023-02-04T15:14:05.514Z,60.19
2023-02-04T15:17:07.022Z,60.17
2023-02-04T15:20:09.191Z,60.19
2023-02-04T15:23:13.056Z,60.21
2023-02-04T15:26:14.984Z,60.20
2023-02-04T15:29:17.102Z,60.18
2023-02-04T15:32:18.833Z,60.06
2023-02-04T15:35:21.788Z,60.12
2023-02-04T15:38:24.108Z,60.08
2023-02-04T15:41:25.928Z,60.07
2023-02-04T15:44:27.509Z,60.06
2023-02-04T15:47:29.076Z,60.06
2023-02-04T15:50:31.230Z,59.68
2023-02-04T15:53:34.714Z,60.13
2023-02-04T15:56:36.208Z,59.93
2023-02-04T15:59:37.712Z,59.99
2023-02-04T16:02:39.278Z,60.05
2023-02-04T16:05:40.805Z,59.87
2023-02-04T16:08:42.318Z,60.23
2023-02-04T16:11:43.839Z,60.03
2023-02-04T16:14:45.312Z,59.87
2023-02-04T16:17:46.823Z,59.96
2023-02-04T16:20:48.255Z,59.90
2023-02-04T16:23:49.724Z,59.87
2023-02-04T16:26:51.224Z,59.81
2023-02-04T16:29:54.865Z,59.78
2023-02-04T16:32:58.015Z,59.78
2023-02-04T16:36:11.577Z,59.70
2023-02-04T16:39:13.271Z,59.52
2023-02-04T16:42:15.196Z,59.63
2023-02-04T16:45:16.746Z,59.55
2023-02-04T16:48:18.352Z,59.56
2023-02-04T16:51:20.390Z,59.29
2023-02-04T16:54:21.833Z,59.59
2023-02-04T16:57:23.767Z,59.55
2023-02-04T17:00:25.216Z,59.58
2023-02-04T17:03:28.024Z,59.81
2023-02-04T17:06:32.469Z,59.67
2023-02-04T17:09:33.955Z,59.77
2023-02-04T17:12:35.393Z,59.78
2023-02-04T17:15:36.918Z,59.84
2023-02-04T17:18:38.679Z,60.14
2023-02-04T17:21:40.791Z,59.89
2023-02-04T17:24:43.654Z,60.07
2023-02-04T17:27:45.155Z,60.19
2023-02-04T17:30:46.764Z,60.24
2023-02-04T17:33:48.623Z,60.37
2023-02-04T17:36:50.092Z,60.47
2023-02-04T17:39:51.586Z,60.61
2023-02-04T17:42:53.263Z,60.63
2023-02-04T17:45:54.906Z,60.54
2023-02-04T17:48:56.535Z,60.51
2023-02-04T17:51:57.991Z,60.77
2023-02-04T17:55:10.036Z,60.68
2023-02-04T17:58:19.971Z,60.74
2023-02-04T18:01:23.681Z,60.88
2023-02-04T18:04:25.565Z,60.99
2023-02-04T18:07:27.155Z,60.98
2023-02-04T18:10:35.530Z,61.10
2023-02-04T18:13:37.121Z,61.10
2023-02-04T18:16:39.843Z,61.10
2023-02-04T18:19:44.891Z,60.97
2023-02-04T18:22:53.563Z,60.72
2023-02-04T18:25:56.042Z,60.98
2023-02-04T18:28:59.432Z,60.91
2023-02-04T18:32:20.656Z,61.00
2023-02-04T18:35:46.989Z,52.06
2023-02-04T18:38:49.820Z,50.85
2023-02-04T18:41:52.075Z,54.08
2023-02-04T18:44:54.983Z,55.80
2023-02-04T18:48:01.450Z,55.58
2023-02-04T18:51:17.977Z,56.14
2023-02-04T18:54:36.751Z,56.59
2023-02-04T18:57:39.607Z,56.78
2023-02-04T19:00:42.086Z,57.02
2023-02-04T19:03:58.497Z,56.93
2023-02-04T19:07:01.311Z,57.12
2023-02-04T19:10:25.791Z,57.24
2023-02-04T19:13:42.151Z,57.46
2023-02-04T19:16:45.101Z,57.54
2023-02-04T19:19:51.380Z,57.66
2023-02-04T19:22:54.956Z,57.88
2023-02-04T19:25:56.620Z,57.86
2023-02-04T19:28:58.209Z,57.78
2023-02-04T19:32:18.565Z,57.77
2023-02-04T19:35:22.512Z,58.08
2023-02-04T19:38:45.129Z,57.61
2023-02-04T19:41:49.020Z,57.51
2023-02-04T19:44:51.486Z,57.59
2023-02-04T19:47:54.976Z,57.45
2023-02-04T19:50:56.441Z,57.41
2023-02-04T19:54:10.205Z,57.35
2023-02-04T19:57:29.186Z,57.27
2023-02-04T20:00:33.622Z,57.46
2023-02-04T20:03:44.113Z,57.49
2023-02-04T20:06:47.628Z,57.60
2023-02-04T20:09:58.721Z,57.69
2023-02-04T20:13:16.494Z,57.76
2023-02-04T20:16:38.451Z,57.83
2023-02-04T20:19:41.949Z,57.87
2023-02-04T20:22:55.470Z,57.88
2023-02-04T20:25:57.182Z,57.93
2023-02-04T20:28:58.680Z,58.17
2023-02-04T20:32:01.066Z,58.05
2023-02-04T20:35:11.622Z,58.13
2023-02-04T20:38:17.426Z,58.17
2023-02-04T20:41:20.808Z,58.27
2023-02-04T20:44:27.537Z,58.44
2023-02-04T20:47:29.794Z,58.51
2023-02-04T20:50:51.899Z,58.44
2023-02-04T20:53:58.962Z,58.36
2023-02-04T20:57:17.597Z,58.64
2023-02-04T21:00:29.676Z,58.58
2023-02-04T21:03:36.670Z,58.78
2023-02-04T21:06:38.356Z,58.87
2023-02-04T21:09:40.091Z,58.96
2023-02-04T21:12:45.642Z,58.83
2023-02-04T21:15:47.880Z,58.66
2023-02-04T21:18:50.565Z,58.67
2023-02-04T21:21:52.372Z,58.85
2023-02-04T21:24:53.866Z,58.82
2023-02-04T21:27:56.412Z,58.94
2023-02-04T21:30:59.135Z,58.83
2023-02-04T21:34:00.713Z,58.95
2023-02-04T21:37:02.326Z,58.82
2023-02-04T21:40:04.141Z,58.91
2023-02-04T21:43:07.994Z,58.92
2023-02-04T21:46:09.514Z,58.97
2023-02-04T21:49:10.992Z,58.94
2023-02-04T21:52:13.209Z,58.95
2023-02-04T21:55:17.097Z,58.74
2023-02-04T21:58:18.556Z,58.74
2023-02-04T22:01:20.149Z,58.53
2023-02-04T22:04:21.706Z,58.51
2023-02-04T22:07:23.250Z,58.49
2023-02-04T22:10:25.638Z,58.48
2023-02-04T22:13:45.966Z,58.47
2023-02-04T22:16:47.474Z,58.42
2023-02-04T22:19:48.954Z,58.27
2023-02-04T22:22:50.868Z,58.32
2023-02-04T22:25:52.383Z,58.33
2023-02-04T22:28:53.820Z,58.24
2023-02-04T22:31:56.066Z,58.34
2023-02-04T22:34:57.818Z,58.35
2023-02-04T22:38:01.966Z,57.99
2023-02-04T22:41:03.886Z,58.37
2023-02-04T22:44:05.478Z,58.13
2023-02-04T22:47:06.977Z,58.26
2023-02-04T22:50:08.965Z,58.27
2023-02-04T22:53:10.479Z,58.26
2023-02-04T22:56:11.976Z,58.07
2023-02-04T22:59:13.440Z,58.29
2023-02-04T23:02:15.070Z,58.30
2023-02-04T23:05:16.624Z,58.47
2023-02-04T23:08:18.205Z,58.73
2023-02-04T23:11:20.014Z,58.49
2023-02-04T23:14:21.473Z,58.49
2023-02-04T23:17:22.954Z,58.49
2023-02-04T23:20:24.424Z,58.55
2023-02-04T23:23:27.562Z,58.53
2023-02-04T23:26:29.220Z,58.64
2023-02-04T23:29:35.304Z,58.54
2023-02-04T23:32:36.988Z,58.63
2023-02-04T23:35:38.498Z,58.58
2023-02-04T23:38:39.962Z,58.48
2023-02-04T23:41:41.439Z,58.61
2023-02-04T23:44:42.882Z,58.62
2023-02-04T23:47:44.328Z,58.67
2023-02-04T23:50:47.647Z,58.60
2023-02-04T23:53:49.130Z,58.58
2023-02-04T23:56:50.751Z,58.55
2023-02-04T23:59:52.250Z,58.61
